Time;durP1;ratioP1;P1;durP2;ratioP2;P2;SDS_P1;SDS_P2;PMS_P1;PMS_P2;Temp;Humidity;BMP_temperature;BMP_pressure;BME280_temperature;BME280_humidity;BME280_pressure;Samples;Min_cycle;Max_cycle;Signal;HPM_P1;HPM_P2
2021/06/11 00:00:54;;;;;;;;;;;19.40;55.40;;;;;;486432;245;2406;-45
2021/06/11 00:02:56;;;;;;;;;;;19.40;55.40;;;;;;486689;245;1240;-45
2021/06/11 00:04:57;;;;;;;;;;;19.40;55.40;;;;;;486632;245;1093;-45
2021/06/11 00:06:58;;;;;;;;;;;19.40;55.30;;;;;;486426;245;1233;-45
2021/06/11 00:08:59;;;;;;;;;;;19.40;55.40;;;;;;486947;245;1183;-45
2021/06/11 00:11:01;;;;;;;;;;;19.40;55.40;;;;;;486393;245;1426;-44
2021/06/11 00:13:03;;;;;;;;;;;19.40;55.40;;;;;;486396;245;1302;-45
2021/06/11 00:15:04;;;;;;;;;;;19.40;55.50;;;;;;486886;245;1171;-45
2021/06/11 00:17:05;;;;;;;;;;;19.40;55.40;;;;;;486416;245;2191;-45
2021/06/11 00:19:07;;;;;;;;;;;19.40;55.30;;;;;;486542;245;1168;-45
2021/06/11 00:21:08;;;;;;;;;;;19.40;55.40;;;;;;486528;245;1558;-45
2021/06/11 00:23:09;;;;;;;;;;;19.30;55.40;;;;;;486817;245;1223;-45
2021/06/11 00:25:11;;;;;;;;;;;19.30;55.40;;;;;;486794;245;1023;-45
2021/06/11 00:27:12;;;;;;;;;;;19.40;55.40;;;;;;486948;245;1216;-45
2021/06/11 00:29:13;;;;;;;;;;;19.40;55.40;;;;;;486966;245;1060;-45
2021/06/11 00:31:14;;;;;;;;;;;19.40;55.40;;;;;;486931;245;1075;-45
2021/06/11 00:33:16;;;;;;;;;;;19.40;55.40;;;;;;486799;245;1134;-45
2021/06/11 00:35:17;;;;;;;;;;;19.40;55.40;;;;;;486507;245;1105;-45
2021/06/11 00:37:18;;;;;;;;;;;19.40;55.40;;;;;;486635;245;2132;-45
2021/06/11 00:39:20;;;;;;;;;;;19.40;55.30;;;;;;486474;245;1176;-45
2021/06/11 00:41:21;;;;;;;;;;;19.40;55.40;;;;;;486746;245;1348;-45
2021/06/11 00:43:22;;;;;;;;;;;19.40;55.40;;;;;;486735;245;1152;-45
2021/06/11 00:45:24;;;;;;;;;;;19.40;55.40;;;;;;486631;245;1090;-45
2021/06/11 00:47:25;;;;;;;;;;;19.30;55.40;;;;;;486501;245;1487;-45
2021/06/11 00:49:26;;;;;;;;;;;19.40;55.50;;;;;;486598;245;1169;-45
2021/06/11 00:51:28;;;;;;;;;;;19.40;55.40;;;;;;486527;245;1490;-45
2021/06/11 00:53:29;;;;;;;;;;;19.40;55.40;;;;;;486884;245;1046;-45
2021/06/11 00:55:31;;;;;;;;;;;19.40;55.30;;;;;;486812;245;1145;-45
2021/06/11 00:57:32;;;;;;;;;;;19.40;55.40;;;;;;486969;245;2150;-45
2021/06/11 00:59:33;;;;;;;;;;;19.40;55.40;;;;;;486996;245;1149;-45
2021/06/11 01:01:34;;;;;;;;;;;19.40;55.30;;;;;;486841;245;1325;-45
2021/06/11 01:03:36;;;;;;;;;;;19.40;55.30;;;;;;486751;245;1261;-45
2021/06/11 01:05:37;;;;;;;;;;;19.40;55.40;;;;;;486461;245;1126;-44
2021/06/11 01:07:38;;;;;;;;;;;19.30;55.40;;;;;;486430;245;1169;-45
2021/06/11 01:09:40;;;;;;;;;;;19.40;55.50;;;;;;486926;245;1254;-45
2021/06/11 01:11:41;;;;;;;;;;;19.40;55.40;;;;;;486338;245;1216;-45
2021/06/11 01:13:42;;;;;;;;;;;19.30;55.30;;;;;;486961;245;1100;-45
2021/06/11 01:15:44;;;;;;;;;;;19.40;55.40;;;;;;486647;245;1166;-45
2021/06/11 01:17:45;;;;;;;;;;;19.40;55.30;;;;;;486429;245;2179;-45
2021/06/11 01:19:46;;;;;;;;;;;19.30;55.40;;;;;;486573;245;1217;-45
2021/06/11 01:21:47;;;;;;;;;;;19.40;55.40;;;;;;486375;245;1245;-45
2021/06/11 01:23:49;;;;;;;;;;;19.40;55.40;;;;;;486493;245;1205;-45
2021/06/11 01:25:50;;;;;;;;;;;19.40;55.40;;;;;;486448;245;1463;-45
2021/06/11 01:27:51;;;;;;;;;;;19.40;55.40;;;;;;486278;245;1227;-45
2021/06/11 01:29:56;;;;;;;;;;;19.40;55.40;;;;;;486975;245;1005;-45
2021/06/11 01:31:54;;;;;;;;;;;19.40;55.40;;;;;;486162;245;2121;-45
2021/06/11 01:33:55;;;;;;;;;;;19.30;55.40;;;;;;486546;245;1274;-45
2021/06/11 01:35:56;;;;;;;;;;;19.30;55.40;;;;;;486460;245;1122;-45
2021/06/11 01:37:58;;;;;;;;;;;19.40;55.50;;;;;;486719;245;2186;-45
2021/06/11 01:39:59;;;;;;;;;;;19.40;55.50;;;;;;486518;245;1024;-45
2021/06/11 01:42:00;;;;;;;;;;;19.40;55.50;;;;;;486407;245;1340;-45
2021/06/11 01:44:02;;;;;;;;;;;19.30;55.40;;;;;;486741;245;1069;-45
2021/06/11 01:46:03;;;;;;;;;;;19.30;55.40;;;;;;486642;245;1418;-45
2021/06/11 01:48:04;;;;;;;;;;;19.30;55.40;;;;;;486485;245;1489;-44
2021/06/11 01:50:05;;;;;;;;;;;19.30;55.40;;;;;;486673;245;1201;-45
2021/06/11 01:52:07;;;;;;;;;;;19.30;55.50;;;;;;486688;245;1223;-44
2021/06/11 01:54:08;;;;;;;;;;;19.40;55.40;;;;;;486525;245;1068;-45
2021/06/11 01:56:09;;;;;;;;;;;19.30;55.40;;;;;;486586;245;1442;-45
2021/06/11 01:58:10;;;;;;;;;;;19.30;55.40;;;;;;486788;245;2138;-45
2021/06/11 02:00:13;;;;;;;;;;;19.30;55.50;;;;;;486735;245;1232;-45
2021/06/11 02:02:13;;;;;;;;;;;19.30;55.50;;;;;;486321;245;1963;-45
2021/06/11 02:04:14;;;;;;;;;;;19.40;55.50;;;;;;486457;245;1208;-45
2021/06/11 02:06:16;;;;;;;;;;;19.30;55.50;;;;;;486871;245;1357;-45
2021/06/11 02:08:17;;;;;;;;;;;19.30;55.50;;;;;;486831;245;1212;-45
2021/06/11 02:10:18;;;;;;;;;;;19.30;55.50;;;;;;486906;245;997;-45
2021/06/11 02:12:20;;;;;;;;;;;19.30;55.40;;;;;;486948;245;1035;-45
2021/06/11 02:14:22;;;;;;;;;;;19.30;55.50;;;;;;486995;245;1048;-45
2021/06/11 02:16:23;;;;;;;;;;;19.30;55.50;;;;;;486816;245;1180;-45
2021/06/11 02:18:24;;;;;;;;;;;19.30;55.40;;;;;;486975;245;2150;-45
2021/06/11 02:20:26;;;;;;;;;;;19.30;55.50;;;;;;486527;245;1251;-45
2021/06/11 02:22:27;;;;;;;;;;;19.30;55.40;;;;;;486672;245;1215;-45
2021/06/11 02:24:28;;;;;;;;;;;19.40;55.50;;;;;;486988;245;1170;-45
2021/06/11 02:26:29;;;;;;;;;;;19.30;55.40;;;;;;486464;245;1148;-45
2021/06/11 02:28:31;;;;;;;;;;;19.40;55.50;;;;;;486689;245;1182;-45
2021/06/11 02:30:32;;;;;;;;;;;19.30;55.50;;;;;;486940;245;1101;-45
2021/06/11 02:32:34;;;;;;;;;;;19.30;55.60;;;;;;486444;245;1276;-45
2021/06/11 02:34:35;;;;;;;;;;;19.30;55.60;;;;;;486519;245;1216;-45
2021/06/11 02:36:36;;;;;;;;;;;19.30;55.50;;;;;;486860;245;1360;-45
2021/06/11 02:38:38;;;;;;;;;;;19.30;55.60;;;;;;486593;245;2151;-45
2021/06/11 02:40:39;;;;;;;;;;;19.30;55.50;;;;;;486802;245;1154;-45
2021/06/11 02:42:40;;;;;;;;;;;19.40;55.50;;;;;;486457;245;1185;-45
2021/06/11 02:44:42;;;;;;;;;;;19.30;55.50;;;;;;486939;245;1073;-45
2021/06/11 02:46:43;;;;;;;;;;;19.30;55.50;;;;;;486654;245;1402;-44
2021/06/11 02:48:45;;;;;;;;;;;19.30;55.50;;;;;;486465;245;1152;-45
2021/06/11 02:50:46;;;;;;;;;;;19.30;55.50;;;;;;486529;245;1293;-45
2021/06/11 02:52:47;;;;;;;;;;;19.30;55.50;;;;;;486921;245;1341;-45
2021/06/11 02:54:49;;;;;;;;;;;19.30;55.60;;;;;;487026;245;1048;-45
2021/06/11 02:56:50;;;;;;;;;;;19.30;55.60;;;;;;486661;245;1382;-45
2021/06/11 02:58:51;;;;;;;;;;;19.30;55.60;;;;;;486587;245;2140;-45
2021/06/11 03:00:52;;;;;;;;;;;19.30;55.50;;;;;;486499;245;1207;-45
2021/06/11 03:02:54;;;;;;;;;;;19.30;55.50;;;;;;486484;245;1109;-45
2021/06/11 03:04:55;;;;;;;;;;;19.30;55.50;;;;;;486508;245;1259;-45
2021/06/11 03:06:56;;;;;;;;;;;19.30;55.50;;;;;;486594;245;1243;-45
2021/06/11 03:08:58;;;;;;;;;;;19.30;55.50;;;;;;486526;245;1005;-45
2021/06/11 03:10:59;;;;;;;;;;;19.30;55.50;;;;;;486690;245;1421;-45
2021/06/11 03:13:00;;;;;;;;;;;19.30;55.50;;;;;;486482;245;1256;-45
2021/06/11 03:15:01;;;;;;;;;;;19.30;55.60;;;;;;486972;245;1157;-45
2021/06/11 03:17:03;;;;;;;;;;;19.30;55.50;;;;;;486495;245;1280;-45
2021/06/11 03:19:04;;;;;;;;;;;19.30;55.50;;;;;;486970;245;2139;-45
2021/06/11 03:21:05;;;;;;;;;;;19.30;55.60;;;;;;486452;245;1255;-45
2021/06/11 03:23:06;;;;;;;;;;;19.30;55.60;;;;;;486481;245;1440;-45
2021/06/11 03:25:08;;;;;;;;;;;19.30;55.60;;;;;;486930;245;1721;-45
2021/06/11 03:27:09;;;;;;;;;;;19.30;55.60;;;;;;486495;245;1120;-44
2021/06/11 03:29:10;;;;;;;;;;;19.30;55.60;;;;;;486480;245;1029;-45
2021/06/11 03:31:12;;;;;;;;;;;19.30;55.60;;;;;;486461;245;1151;-44
2021/06/11 03:33:13;;;;;;;;;;;19.30;55.60;;;;;;486685;245;1031;-45
2021/06/11 03:35:14;;;;;;;;;;;19.30;55.70;;;;;;486760;245;1260;-44
2021/06/11 03:37:15;;;;;;;;;;;19.30;55.70;;;;;;486563;245;1269;-45
2021/06/11 03:39:17;;;;;;;;;;;19.30;55.60;;;;;;486459;245;2202;-45
2021/06/11 03:41:18;;;;;;;;;;;19.30;55.60;;;;;;486403;245;1186;-45
2021/06/11 03:43:19;;;;;;;;;;;19.30;55.60;;;;;;486626;245;1060;-45
2021/06/11 03:45:20;;;;;;;;;;;19.30;55.60;;;;;;486836;245;1167;-45
2021/06/11 03:47:22;;;;;;;;;;;19.40;55.50;;;;;;486422;245;1406;-45
2021/06/11 03:49:23;;;;;;;;;;;19.30;55.50;;;;;;486541;245;1096;-45
2021/06/11 03:51:25;;;;;;;;;;;19.30;55.60;;;;;;486322;245;1249;-45
2021/06/11 03:53:26;;;;;;;;;;;19.30;55.60;;;;;;486427;245;2278;-45
2021/06/11 03:55:27;;;;;;;;;;;19.30;55.60;;;;;;486910;245;1545;-45
2021/06/11 03:57:28;;;;;;;;;;;19.30;55.60;;;;;;486412;245;1362;-45
2021/06/11 03:59:30;;;;;;;;;;;19.30;55.60;;;;;;486895;245;2211;-45
2021/06/11 04:01:31;;;;;;;;;;;19.30;55.60;;;;;;486569;245;1353;-45
2021/06/11 04:03:32;;;;;;;;;;;19.30;55.60;;;;;;486592;245;1076;-45
2021/06/11 04:05:34;;;;;;;;;;;19.30;55.60;;;;;;486553;245;1339;-45
2021/06/11 04:07:35;;;;;;;;;;;19.30;55.50;;;;;;486467;245;1149;-45
2021/06/11 04:09:37;;;;;;;;;;;19.30;55.50;;;;;;486932;245;1045;-45
2021/06/11 04:11:38;;;;;;;;;;;19.30;55.50;;;;;;486840;245;1321;-45
2021/06/11 04:13:39;;;;;;;;;;;19.30;55.50;;;;;;486621;245;1138;-45
2021/06/11 04:15:41;;;;;;;;;;;19.30;55.60;;;;;;486457;245;1401;-45
2021/06/11 04:17:42;;;;;;;;;;;19.30;55.60;;;;;;486473;245;1105;-45
2021/06/11 04:19:43;;;;;;;;;;;19.30;55.60;;;;;;486385;245;2206;-45
2021/06/11 04:21:45;;;;;;;;;;;19.30;55.60;;;;;;486392;245;1196;-45
2021/06/11 04:23:46;;;;;;;;;;;19.30;55.60;;;;;;486827;245;1055;-44
2021/06/11 04:25:47;;;;;;;;;;;19.30;55.50;;;;;;486397;245;1070;-45
2021/06/11 04:27:48;;;;;;;;;;;19.30;55.50;;;;;;486477;245;1080;-45
2021/06/11 04:29:50;;;;;;;;;;;19.30;55.60;;;;;;486849;245;1176;-44
2021/06/11 04:31:51;;;;;;;;;;;19.30;55.60;;;;;;486782;245;1084;-45
2021/06/11 04:33:53;;;;;;;;;;;19.30;55.60;;;;;;486580;245;1223;-45
2021/06/11 04:35:54;;;;;;;;;;;19.30;55.60;;;;;;486757;245;1250;-45
2021/06/11 04:37:55;;;;;;;;;;;19.30;55.60;;;;;;486500;245;1115;-45
2021/06/11 04:39:57;;;;;;;;;;;19.30;55.60;;;;;;486524;245;2202;-44
2021/06/11 04:41:58;;;;;;;;;;;19.30;55.60;;;;;;486444;245;1054;-45
2021/06/11 04:43:59;;;;;;;;;;;19.30;55.60;;;;;;486357;245;1083;-45
2021/06/11 04:46:01;;;;;;;;;;;19.30;55.60;;;;;;486849;245;1050;-45
2021/06/11 04:48:02;;;;;;;;;;;19.30;55.60;;;;;;486606;245;1079;-45
2021/06/11 04:50:03;;;;;;;;;;;19.30;55.50;;;;;;486774;245;1102;-45
2021/06/11 04:52:05;;;;;;;;;;;19.30;55.60;;;;;;486586;245;1184;-45
2021/06/11 04:54:06;;;;;;;;;;;19.30;55.70;;;;;;486793;245;1228;-45
2021/06/11 04:56:08;;;;;;;;;;;19.40;55.20;;;;;;486389;245;1058;-45
2021/06/11 04:58:10;;;;;;;;;;;19.80;54.40;;;;;;486539;245;1053;-45
2021/06/11 05:00:10;;;;;;;;;;;20.00;53.70;;;;;;486590;245;2326;-45
2021/06/11 05:02:11;;;;;;;;;;;20.20;53.10;;;;;;486250;245;1720;-45
2021/06/11 05:04:13;;;;;;;;;;;20.30;52.80;;;;;;486380;245;1099;-45
2021/06/11 05:06:14;;;;;;;;;;;20.40;52.60;;;;;;486590;245;1137;-45
2021/06/11 05:08:15;;;;;;;;;;;20.50;52.40;;;;;;486465;245;1069;-45
2021/06/11 05:10:17;;;;;;;;;;;20.50;52.20;;;;;;486357;245;1098;-45
2021/06/11 05:12:18;;;;;;;;;;;20.60;52.00;;;;;;486613;245;1156;-45
2021/06/11 05:14:19;;;;;;;;;;;20.60;51.90;;;;;;486270;245;1096;-45
2021/06/11 05:16:21;;;;;;;;;;;20.70;51.80;;;;;;486277;245;1229;-45
2021/06/11 05:18:22;;;;;;;;;;;20.70;51.60;;;;;;486256;245;1077;-45
2021/06/11 05:20:23;;;;;;;;;;;20.80;51.60;;;;;;486445;245;2190;-45
2021/06/11 05:22:24;;;;;;;;;;;20.80;51.50;;;;;;486299;245;1199;-45
2021/06/11 05:24:26;;;;;;;;;;;20.80;51.40;;;;;;486295;245;1264;-45
2021/06/11 05:26:27;;;;;;;;;;;20.90;51.20;;;;;;486077;245;1223;-45
2021/06/11 05:28:28;;;;;;;;;;;21.00;51.20;;;;;;486320;245;1212;-45
2021/06/11 05:30:29;;;;;;;;;;;21.00;51.10;;;;;;486663;245;1069;-45
2021/06/11 05:32:31;;;;;;;;;;;21.00;51.00;;;;;;486192;245;1304;-45
2021/06/11 05:34:32;;;;;;;;;;;21.00;51.00;;;;;;486260;245;1233;-45
2021/06/11 05:36:33;;;;;;;;;;;21.10;51.00;;;;;;486610;245;1172;-45
2021/06/11 05:38:35;;;;;;;;;;;21.10;50.90;;;;;;486318;245;1157;-45
2021/06/11 05:40:36;;;;;;;;;;;21.10;50.80;;;;;;486253;245;2218;-45
2021/06/11 05:42:37;;;;;;;;;;;21.10;50.80;;;;;;486150;245;1236;-45
2021/06/11 05:44:38;;;;;;;;;;;21.20;50.80;;;;;;486017;245;1378;-45
2021/06/11 05:46:40;;;;;;;;;;;21.20;50.70;;;;;;485949;245;1455;-45
2021/06/11 05:48:43;;;;;;;;;;;21.20;50.70;;;;;;485977;245;1125;-45
2021/06/11 05:50:42;;;;;;;;;;;21.20;50.60;;;;;;485815;245;2509;-45
2021/06/11 05:52:44;;;;;;;;;;;21.20;50.60;;;;;;485892;242;1275;-45
2021/06/11 05:54:45;;;;;;;;;;;21.20;50.60;;;;;;485937;245;1032;-45
2021/06/11 05:56:46;;;;;;;;;;;21.30;50.60;;;;;;486165;245;1344;-45
2021/06/11 05:58:47;;;;;;;;;;;21.30;50.50;;;;;;486007;245;2147;-45
2021/06/11 06:00:49;;;;;;;;;;;21.30;50.50;;;;;;486159;245;1278;-45
2021/06/11 06:02:50;;;;;;;;;;;21.30;50.50;;;;;;486132;245;1326;-45
2021/06/11 06:04:52;;;;;;;;;;;21.40;50.50;;;;;;485940;245;1193;-45
2021/06/11 06:06:53;;;;;;;;;;;21.40;50.50;;;;;;486070;245;1370;-45
2021/06/11 06:08:54;;;;;;;;;;;21.40;50.50;;;;;;486004;245;1456;-44
2021/06/11 06:10:55;;;;;;;;;;;21.40;50.50;;;;;;485951;245;1230;-45
2021/06/11 06:12:57;;;;;;;;;;;21.40;50.60;;;;;;485937;245;1326;-45
2021/06/11 06:14:59;;;;;;;;;;;21.40;50.50;;;;;;485915;245;1133;-45
2021/06/11 06:17:00;;;;;;;;;;;21.50;50.50;;;;;;486068;245;1353;-45
2021/06/11 06:19:01;;;;;;;;;;;21.40;50.40;;;;;;485881;245;2193;-45
2021/06/11 06:21:02;;;;;;;;;;;21.50;50.40;;;;;;485950;245;1097;-45
2021/06/11 06:23:04;;;;;;;;;;;21.40;50.30;;;;;;485855;245;1301;-45
2021/06/11 06:25:05;;;;;;;;;;;21.50;50.30;;;;;;485824;245;1279;-45
2021/06/11 06:27:06;;;;;;;;;;;21.50;50.30;;;;;;485906;245;1410;-45
2021/06/11 06:29:08;;;;;;;;;;;21.50;50.30;;;;;;485923;245;1127;-45
2021/06/11 06:31:09;;;;;;;;;;;21.50;50.30;;;;;;485885;245;1158;-45
2021/06/11 06:33:10;;;;;;;;;;;21.50;50.20;;;;;;485795;245;1413;-45
2021/06/11 06:35:12;;;;;;;;;;;21.50;50.20;;;;;;485988;245;1197;-45
2021/06/11 06:37:14;;;;;;;;;;;21.60;50.20;;;;;;485974;245;1310;-45
2021/06/11 06:39:14;;;;;;;;;;;21.60;50.20;;;;;;485899;244;2182;-45
2021/06/11 06:41:17;;;;;;;;;;;21.60;50.20;;;;;;485970;245;1304;-45
2021/06/11 06:43:17;;;;;;;;;;;21.60;50.20;;;;;;485875;245;2063;-45
2021/06/11 06:45:19;;;;;;;;;;;21.60;50.10;;;;;;485951;245;1105;-45
2021/06/11 06:47:20;;;;;;;;;;;21.60;50.10;;;;;;485841;245;1186;-45
2021/06/11 06:49:22;;;;;;;;;;;21.60;50.10;;;;;;486083;245;1141;-45
2021/06/11 06:51:26;;;;;;;;;;;21.60;50.10;;;;;;485784;245;1729;-45
2021/06/11 06:53:25;;;;;;;;;;;21.60;50.00;;;;;;486008;245;1993;-45
2021/06/11 06:55:26;;;;;;;;;;;21.70;50.00;;;;;;485849;245;1296;-45
2021/06/11 06:57:28;;;;;;;;;;;21.70;49.90;;;;;;485991;245;1299;-45
2021/06/11 06:59:29;;;;;;;;;;;21.70;49.90;;;;;;485830;245;2144;-45
2021/06/11 07:01:30;;;;;;;;;;;21.80;49.90;;;;;;485791;245;1438;-45
2021/06/11 07:03:32;;;;;;;;;;;21.80;49.90;;;;;;486052;245;1338;-45
2021/06/11 07:05:33;;;;;;;;;;;21.80;49.80;;;;;;485936;245;1165;-45
2021/06/11 07:07:34;;;;;;;;;;;21.80;49.80;;;;;;485849;245;1197;-45
2021/06/11 07:09:36;;;;;;;;;;;21.80;49.80;;;;;;485874;245;1187;-45
2021/06/11 07:11:37;;;;;;;;;;;21.80;49.90;;;;;;485776;245;1344;-45
2021/06/11 07:13:38;;;;;;;;;;;21.80;49.90;;;;;;485824;245;2117;-45
2021/06/11 07:15:40;;;;;;;;;;;21.70;49.90;;;;;;485744;245;1257;-45
2021/06/11 07:17:41;;;;;;;;;;;21.80;49.90;;;;;;485575;245;1388;-45
2021/06/11 07:19:42;;;;;;;;;;;21.90;49.80;;;;;;485824;245;2135;-45
2021/06/11 07:21:44;;;;;;;;;;;21.80;49.80;;;;;;485767;245;1208;-45
2021/06/11 07:23:45;;;;;;;;;;;21.80;49.80;;;;;;485728;245;1085;-45
2021/06/11 07:25:46;;;;;;;;;;;21.80;49.80;;;;;;485744;245;1099;-45
2021/06/11 07:27:47;;;;;;;;;;;21.80;49.80;;;;;;485729;245;1201;-45
2021/06/11 07:29:50;;;;;;;;;;;21.90;49.80;;;;;;485835;245;1196;-45
2021/06/11 07:31:50;;;;;;;;;;;21.90;49.80;;;;;;485529;245;1989;-45
2021/06/11 07:33:51;;;;;;;;;;;21.90;49.70;;;;;;485643;245;1426;-45
2021/06/11 07:35:55;;;;;;;;;;;21.90;49.70;;;;;;485636;245;1132;-45
2021/06/11 07:37:54;;;;;;;;;;;21.90;49.70;;;;;;485514;244;2065;-45
2021/06/11 07:39:55;;;;;;;;;;;21.90;49.70;;;;;;485424;245;2183;-45
2021/06/11 07:41:57;;;;;;;;;;;21.90;49.60;;;;;;485639;245;1309;-45
2021/06/11 07:43:58;;;;;;;;;;;22.00;49.70;;;;;;485644;245;1223;-45
2021/06/11 07:45:59;;;;;;;;;;;21.90;49.70;;;;;;485668;245;1329;-45
2021/06/11 07:48:01;;;;;;;;;;;22.00;49.70;;;;;;485601;245;1245;-45
2021/06/11 07:50:02;;;;;;;;;;;22.00;49.70;;;;;;485830;245;1132;-45
2021/06/11 07:52:03;;;;;;;;;;;21.90;49.70;;;;;;485833;245;1202;-45
2021/06/11 07:54:06;;;;;;;;;;;22.00;49.70;;;;;;485685;245;1223;-45
2021/06/11 07:56:06;;;;;;;;;;;21.90;49.70;;;;;;485512;244;2332;-45
2021/06/11 07:58:07;;;;;;;;;;;21.90;49.80;;;;;;486053;245;1134;-45
2021/06/11 08:00:09;;;;;;;;;;;22.00;49.60;;;;;;485572;245;2190;-45
2021/06/11 08:02:11;;;;;;;;;;;22.00;49.50;;;;;;485546;242;1242;-45
2021/06/11 08:04:11;;;;;;;;;;;21.70;50.40;;;;;;485702;245;2302;-45
2021/06/11 08:06:13;;;;;;;;;;;21.30;51.20;;;;;;485619;245;1134;-45
2021/06/11 08:08:14;;;;;;;;;;;21.10;51.90;;;;;;485668;245;1346;-45
2021/06/11 08:10:16;;;;;;;;;;;20.90;52.40;;;;;;485680;245;1205;-45
2021/06/11 08:12:17;;;;;;;;;;;20.80;52.80;;;;;;485735;245;1171;-45
2021/06/11 08:14:18;;;;;;;;;;;20.70;53.10;;;;;;485770;245;2121;-45
2021/06/11 08:16:19;;;;;;;;;;;20.60;53.30;;;;;;485556;245;1384;-45
2021/06/11 08:18:21;;;;;;;;;;;20.50;53.50;;;;;;485596;245;1279;-45
2021/06/11 08:20:22;;;;;;;;;;;20.40;53.70;;;;;;485605;245;2195;-45
2021/06/11 08:22:24;;;;;;;;;;;20.40;53.90;;;;;;485522;245;1190;-45
2021/06/11 08:24:25;;;;;;;;;;;20.40;54.00;;;;;;485486;245;1235;-45
2021/06/11 08:26:26;;;;;;;;;;;20.30;54.00;;;;;;485321;245;1172;-45
2021/06/11 08:28:27;;;;;;;;;;;20.30;54.10;;;;;;485505;245;1247;-44
2021/06/11 08:30:29;;;;;;;;;;;20.30;54.20;;;;;;485534;245;1687;-45
2021/06/11 08:32:30;;;;;;;;;;;20.30;54.20;;;;;;485596;245;1237;-45
2021/06/11 08:34:36;;;;;;;;;;;20.20;54.30;;;;;;485492;245;1288;-44
2021/06/11 08:36:33;;;;;;;;;;;20.20;54.40;;;;;;485202;245;1440;-45
2021/06/11 08:38:34;;;;;;;;;;;20.20;54.50;;;;;;485565;245;1173;-45
2021/06/11 08:40:35;;;;;;;;;;;20.20;54.50;;;;;;485511;245;2195;-45
2021/06/11 08:42:37;;;;;;;;;;;20.10;54.60;;;;;;485515;245;1227;-45
2021/06/11 08:44:38;;;;;;;;;;;20.10;54.70;;;;;;485681;245;1091;-45
2021/06/11 08:46:39;;;;;;;;;;;20.10;54.70;;;;;;485595;245;1106;-45
2021/06/11 08:48:41;;;;;;;;;;;20.10;54.70;;;;;;485639;245;1192;-45
2021/06/11 08:50:42;;;;;;;;;;;20.10;54.70;;;;;;485697;245;1126;-45
2021/06/11 08:52:43;;;;;;;;;;;20.10;54.70;;;;;;485557;245;1196;-45
2021/06/11 08:54:44;;;;;;;;;;;20.10;54.70;;;;;;485802;245;1342;-45
2021/06/11 08:56:46;;;;;;;;;;;20.00;54.80;;;;;;485784;244;1178;-45
2021/06/11 08:58:49;;;;;;;;;;;20.00;54.90;;;;;;485756;245;1165;-45
2021/06/11 09:00:49;;;;;;;;;;;20.00;54.90;;;;;;486381;245;2219;-45
2021/06/11 09:02:51;;;;;;;;;;;20.00;54.90;;;;;;486010;245;1163;-45
2021/06/11 09:04:54;;;;;;;;;;;20.00;54.90;;;;;;485689;245;1087;-45
2021/06/11 09:06:53;;;;;;;;;;;20.00;54.90;;;;;;485665;245;2098;-45
2021/06/11 09:08:55;;;;;;;;;;;20.00;55.00;;;;;;486069;245;934;-45
2021/06/11 09:10:56;;;;;;;;;;;19.90;55.00;;;;;;485714;245;1281;-45
2021/06/11 09:12:57;;;;;;;;;;;19.90;55.00;;;;;;486000;245;1244;-45
2021/06/11 09:14:58;;;;;;;;;;;19.90;55.00;;;;;;486139;245;971;-45
2021/06/11 09:17:00;;;;;;;;;;;19.90;55.00;;;;;;485945;245;1275;-45
2021/06/11 09:19:02;;;;;;;;;;;19.90;55.00;;;;;;485541;245;1210;-44
2021/06/11 09:21:02;;;;;;;;;;;19.90;55.10;;;;;;485677;245;2255;-44
2021/06/11 09:23:04;;;;;;;;;;;19.90;55.10;;;;;;486508;245;921;-44
2021/06/11 09:25:05;;;;;;;;;;;19.90;55.10;;;;;;486260;245;1213;-44
2021/06/11 09:27:07;;;;;;;;;;;19.90;55.10;;;;;;485553;245;1213;-44
2021/06/11 09:29:07;;;;;;;;;;;19.90;55.10;;;;;;485507;244;2275;-44
2021/06/11 09:31:09;;;;;;;;;;;19.90;55.10;;;;;;485549;245;1269;-44
2021/06/11 09:33:10;;;;;;;;;;;19.90;55.10;;;;;;485582;245;1319;-45
2021/06/11 09:35:12;;;;;;;;;;;19.90;55.10;;;;;;485654;245;1154;-44
2021/06/11 09:37:13;;;;;;;;;;;19.80;55.20;;;;;;485630;243;2520;-44
2021/06/11 09:39:14;;;;;;;;;;;19.80;55.20;;;;;;485782;245;1120;-44
2021/06/11 09:41:18;;;;;;;;;;;19.80;55.20;;;;;;485725;244;2190;-44
2021/06/11 09:43:17;;;;;;;;;;;19.80;55.30;;;;;;485500;244;2086;-44
2021/06/11 09:45:18;;;;;;;;;;;19.80;55.30;;;;;;485645;245;1113;-44
2021/06/11 09:47:19;;;;;;;;;;;19.80;55.20;;;;;;485568;245;1290;-44
2021/06/11 09:49:25;;;;;;;;;;;19.80;55.20;;;;;;485638;245;1335;-44
2021/06/11 09:51:22;;;;;;;;;;;19.80;55.30;;;;;;485340;245;2127;-44
2021/06/11 09:53:23;;;;;;;;;;;19.80;55.30;;;;;;485765;245;1304;-44
2021/06/11 09:55:25;;;;;;;;;;;19.80;55.30;;;;;;485663;245;1300;-44
2021/06/11 09:57:28;;;;;;;;;;;19.80;55.30;;;;;;486094;245;1122;-44
2021/06/11 09:59:27;;;;;;;;;;;19.80;55.30;;;;;;486102;245;1854;-44
2021/06/11 10:01:29;;;;;;;;;;;19.80;55.30;;;;;;485720;241;2187;-44
2021/06/11 10:03:30;;;;;;;;;;;19.80;55.30;;;;;;486139;245;1088;-44
2021/06/11 10:05:31;;;;;;;;;;;19.80;55.40;;;;;;485716;245;873;-44
2021/06/11 10:07:32;;;;;;;;;;;19.80;55.40;;;;;;485742;245;1385;-44
2021/06/11 10:09:34;;;;;;;;;;;19.80;55.30;;;;;;486191;245;797;-44
2021/06/11 10:11:36;;;;;;;;;;;19.80;55.50;;;;;;485592;245;1183;-44
2021/06/11 10:13:36;;;;;;;;;;;19.70;55.30;;;;;;485684;244;2112;-44
2021/06/11 10:15:37;;;;;;;;;;;19.70;55.40;;;;;;486226;245;633;-44
2021/06/11 10:17:40;;;;;;;;;;;19.70;55.40;;;;;;486203;245;1131;-44
2021/06/11 10:19:41;;;;;;;;;;;19.70;55.40;;;;;;485829;245;794;-44
2021/06/11 10:21:42;;;;;;;;;;;19.70;55.50;;;;;;485680;245;2198;-44
2021/06/11 10:23:44;;;;;;;;;;;19.70;55.50;;;;;;486191;245;1004;-44
2021/06/11 10:25:46;;;;;;;;;;;19.60;55.40;;;;;;486082;245;1445;-44
2021/06/11 10:27:46;;;;;;;;;;;19.70;55.50;;;;;;486124;245;1562;-44
2021/06/11 10:29:48;;;;;;;;;;;19.70;55.40;;;;;;485887;245;1391;-44
2021/06/11 10:31:49;;;;;;;;;;;19.70;55.40;;;;;;486220;245;1253;-44
2021/06/11 10:33:50;;;;;;;;;;;19.70;55.40;;;;;;486340;245;865;-44
2021/06/11 10:35:51;;;;;;;;;;;19.70;55.50;;;;;;485784;245;1263;-44
2021/06/11 10:37:53;;;;;;;;;;;19.70;55.50;;;;;;485842;245;1195;-44
2021/06/11 10:39:54;;;;;;;;;;;19.60;55.50;;;;;;485720;245;1091;-44
2021/06/11 10:41:55;;;;;;;;;;;19.70;55.50;;;;;;485766;245;2144;-44
2021/06/11 10:43:57;;;;;;;;;;;19.60;55.40;;;;;;485616;245;1212;-44
2021/06/11 10:45:58;;;;;;;;;;;19.60;55.40;;;;;;485679;245;1321;-44
2021/06/11 10:47:59;;;;;;;;;;;19.70;55.50;;;;;;485891;245;1039;-44
2021/06/11 10:50:01;;;;;;;;;;;19.70;55.40;;;;;;485921;245;1277;-45
2021/06/11 10:52:02;;;;;;;;;;;19.60;55.40;;;;;;485742;245;1275;-44
2021/06/11 10:54:03;;;;;;;;;;;19.70;55.40;;;;;;485924;245;1185;-44
2021/06/11 10:56:05;;;;;;;;;;;19.70;55.40;;;;;;485808;243;1399;-44
2021/06/11 10:58:06;;;;;;;;;;;19.60;55.40;;;;;;485837;245;2172;-44
2021/06/11 11:00:07;;;;;;;;;;;19.70;55.40;;;;;;485770;245;1112;-44
2021/06/11 11:02:08;;;;;;;;;;;19.70;55.40;;;;;;485761;244;2199;-44
2021/06/11 11:04:10;;;;;;;;;;;19.60;55.50;;;;;;485736;245;1066;-44
2021/06/11 11:06:11;;;;;;;;;;;19.60;55.50;;;;;;485776;245;1115;-44
2021/06/11 11:08:12;;;;;;;;;;;19.60;55.40;;;;;;485877;245;1123;-44
2021/06/11 11:10:15;;;;;;;;;;;19.60;55.40;;;;;;485860;245;1442;-44
2021/06/11 11:12:15;;;;;;;;;;;19.60;55.40;;;;;;485600;245;2141;-44
2021/06/11 11:14:16;;;;;;;;;;;19.60;55.40;;;;;;485801;245;1162;-44
2021/06/11 11:16:18;;;;;;;;;;;19.60;55.40;;;;;;485724;245;1087;-44
2021/06/11 11:18:22;;;;;;;;;;;19.60;55.50;;;;;;485644;245;1167;-44
2021/06/11 11:20:20;;;;;;;;;;;19.60;55.50;;;;;;485355;244;1995;-44
2021/06/11 11:22:22;;;;;;;;;;;19.60;55.50;;;;;;485891;245;2115;-44
2021/06/11 11:24:23;;;;;;;;;;;19.60;55.50;;;;;;486026;245;1312;-44
2021/06/11 11:26:24;;;;;;;;;;;19.60;55.40;;;;;;486347;245;1175;-44
2021/06/11 11:28:25;;;;;;;;;;;19.60;55.40;;;;;;485735;245;1202;-44
2021/06/11 11:30:27;;;;;;;;;;;19.60;55.40;;;;;;485889;245;1215;-44
2021/06/11 11:32:28;;;;;;;;;;;19.60;55.50;;;;;;485815;245;2508;-44
2021/06/11 11:34:29;;;;;;;;;;;19.60;55.50;;;;;;485734;245;1320;-44
2021/06/11 11:36:31;;;;;;;;;;;19.60;55.50;;;;;;485597;245;1395;-44
2021/06/11 11:38:32;;;;;;;;;;;19.60;55.40;;;;;;486521;245;1493;-44
2021/06/11 11:40:33;;;;;;;;;;;19.60;55.50;;;;;;485829;245;1082;-44
2021/06/11 11:42:35;;;;;;;;;;;19.60;55.50;;;;;;485584;245;2187;-44
2021/06/11 11:44:36;;;;;;;;;;;19.60;55.50;;;;;;485738;245;1141;-44
2021/06/11 11:46:37;;;;;;;;;;;19.60;55.50;;;;;;485701;245;1188;-44
2021/06/11 11:48:39;;;;;;;;;;;19.60;55.40;;;;;;485662;245;1201;-44
2021/06/11 11:50:40;;;;;;;;;;;19.60;55.50;;;;;;485648;245;1414;-44
2021/06/11 11:52:42;;;;;;;;;;;19.60;55.50;;;;;;485623;245;1224;-44
2021/06/11 11:54:43;;;;;;;;;;;19.60;55.50;;;;;;485585;245;2172;-44
2021/06/11 11:56:44;;;;;;;;;;;19.60;55.50;;;;;;485514;245;1444;-44